sensor_id;sensor_type;location;lat;lon;timestamp;P1;durP1;ratioP1;P2;durP2;ratioP2
9076;SDS011;4574;51.072;17.174;2022-10-16T00:01:47;7.17;;;4.73;;
9076;SDS011;4574;51.072;17.174;2022-10-16T00:04:16;7.87;;;4.37;;
9076;SDS011;4574;51.072;17.174;2022-10-16T00:06:46;6.50;;;4.43;;
9076;SDS011;4574;51.072;17.174;2022-10-16T00:09:15;7.57;;;5.87;;
9076;SDS011;4574;51.072;17.174;2022-10-16T00:11:43;17.07;;;11.57;;
9076;SDS011;4574;51.072;17.174;2022-10-16T00:14:13;11.50;;;8.40;;
9076;SDS011;4574;51.072;17.174;2022-10-16T00:16:43;9.07;;;5.70;;
9076;SDS011;4574;51.072;17.174;2022-10-16T00:19:11;6.23;;;4.67;;
9076;SDS011;4574;51.072;17.174;2022-10-16T00:21:40;52.20;;;33.67;;
9076;SDS011;4574;51.072;17.174;2022-10-16T00:24:11;65.67;;;39.80;;
9076;SDS011;4574;51.072;17.174;2022-10-16T00:26:40;58.33;;;34.23;;
9076;SDS011;4574;51.072;17.174;2022-10-16T00:29:08;87.17;;;46.93;;
9076;SDS011;4574;51.072;17.174;2022-10-16T00:31:37;26.77;;;16.33;;
9076;SDS011;4574;51.072;17.174;2022-10-16T00:34:06;5.30;;;4.40;;
9076;SDS011;4574;51.072;17.174;2022-10-16T00:36:34;4.70;;;4.00;;
9076;SDS011;4574;51.072;17.174;2022-10-16T00:39:03;12.10;;;6.23;;
9076;SDS011;4574;51.072;17.174;2022-10-16T00:41:33;71.67;;;39.77;;
9076;SDS011;4574;51.072;17.174;2022-10-16T00:44:03;84.83;;;47.33;;
9076;SDS011;4574;51.072;17.174;2022-10-16T00:46:52;87.17;;;44.23;;
9076;SDS011;4574;51.072;17.174;2022-10-16T00:49:21;69.17;;;35.13;;
9076;SDS011;4574;51.072;17.174;2022-10-16T00:51:50;33.67;;;17.70;;
9076;SDS011;4574;51.072;17.174;2022-10-16T00:54:22;11.17;;;7.53;;
9076;SDS011;4574;51.072;17.174;2022-10-16T00:56:54;8.63;;;4.27;;
9076;SDS011;4574;51.072;17.174;2022-10-16T00:59:26;4.43;;;4.03;;
9076;SDS011;4574;51.072;17.174;2022-10-16T01:01:56;6.20;;;4.37;;
9076;SDS011;4574;51.072;17.174;2022-10-16T01:04:26;45.80;;;26.77;;
9076;SDS011;4574;51.072;17.174;2022-10-16T01:07:00;10.40;;;6.13;;
9076;SDS011;4574;51.072;17.174;2022-10-16T01:09:35;6.83;;;4.67;;
9076;SDS011;4574;51.072;17.174;2022-10-16T01:12:15;5.90;;;3.87;;
9076;SDS011;4574;51.072;17.174;2022-10-16T01:14:52;4.73;;;3.90;;
9076;SDS011;4574;51.072;17.174;2022-10-16T01:17:26;6.13;;;3.67;;
9076;SDS011;4574;51.072;17.174;2022-10-16T01:20:03;4.63;;;4.20;;
9076;SDS011;4574;51.072;17.174;2022-10-16T01:22:39;4.33;;;3.90;;
9076;SDS011;4574;51.072;17.174;2022-10-16T01:25:17;7.23;;;4.00;;
9076;SDS011;4574;51.072;17.174;2022-10-16T01:27:54;8.53;;;3.90;;
9076;SDS011;4574;51.072;17.174;2022-10-16T01:30:25;4.77;;;3.70;;
9076;SDS011;4574;51.072;17.174;2022-10-16T01:32:59;7.80;;;4.17;;
9076;SDS011;4574;51.072;17.174;2022-10-16T01:35:32;4.47;;;4.07;;
9076;SDS011;4574;51.072;17.174;2022-10-16T01:38:06;3.80;;;3.37;;
9076;SDS011;4574;51.072;17.174;2022-10-16T01:40:41;5.20;;;4.10;;
9076;SDS011;4574;51.072;17.174;2022-10-16T01:43:16;6.30;;;3.97;;
9076;SDS011;4574;51.072;17.174;2022-10-16T01:45:48;5.67;;;4.10;;
9076;SDS011;4574;51.072;17.174;2022-10-16T01:48:17;5.53;;;4.57;;
9076;SDS011;4574;51.072;17.174;2022-10-16T01:50:49;7.07;;;4.33;;
9076;SDS011;4574;51.072;17.174;2022-10-16T01:53:26;5.10;;;4.23;;
9076;SDS011;4574;51.072;17.174;2022-10-16T01:55:55;4.53;;;4.07;;
9076;SDS011;4574;51.072;17.174;2022-10-16T01:58:27;5.80;;;4.87;;
9076;SDS011;4574;51.072;17.174;2022-10-16T02:01:01;5.30;;;4.57;;
9076;SDS011;4574;51.072;17.174;2022-10-16T02:03:32;5.80;;;4.40;;
9076;SDS011;4574;51.072;17.174;2022-10-16T02:06:02;5.80;;;4.47;;
9076;SDS011;4574;51.072;17.174;2022-10-16T02:08:30;9.20;;;4.67;;
9076;SDS011;4574;51.072;17.174;2022-10-16T02:10:59;5.00;;;4.40;;
9076;SDS011;4574;51.072;17.174;2022-10-16T02:13:32;4.87;;;4.30;;
9076;SDS011;4574;51.072;17.174;2022-10-16T02:16:05;6.53;;;4.33;;
9076;SDS011;4574;51.072;17.174;2022-10-16T02:18:35;4.63;;;3.67;;
9076;SDS011;4574;51.072;17.174;2022-10-16T02:21:07;5.63;;;4.40;;
9076;SDS011;4574;51.072;17.174;2022-10-16T02:23:42;5.37;;;4.33;;
9076;SDS011;4574;51.072;17.174;2022-10-16T02:26:22;6.70;;;4.30;;
9076;SDS011;4574;51.072;17.174;2022-10-16T02:29:00;6.10;;;4.40;;
9076;SDS011;4574;51.072;17.174;2022-10-16T02:31:38;4.60;;;4.20;;
9076;SDS011;4574;51.072;17.174;2022-10-16T02:34:09;5.53;;;4.37;;
9076;SDS011;4574;51.072;17.174;2022-10-16T02:36:40;5.17;;;4.63;;
9076;SDS011;4574;51.072;17.174;2022-10-16T02:39:10;4.73;;;4.20;;
9076;SDS011;4574;51.072;17.174;2022-10-16T02:41:39;5.40;;;4.37;;
9076;SDS011;4574;51.072;17.174;2022-10-16T02:44:09;4.83;;;4.33;;
9076;SDS011;4574;51.072;17.174;2022-10-16T02:46:37;5.63;;;4.23;;
9076;SDS011;4574;51.072;17.174;2022-10-16T02:49:06;8.43;;;5.37;;
9076;SDS011;4574;51.072;17.174;2022-10-16T02:51:35;6.50;;;4.90;;
9076;SDS011;4574;51.072;17.174;2022-10-16T02:54:03;6.83;;;4.63;;
9076;SDS011;4574;51.072;17.174;2022-10-16T02:56:32;7.00;;;4.67;;
9076;SDS011;4574;51.072;17.174;2022-10-16T02:59:01;5.47;;;4.43;;
9076;SDS011;4574;51.072;17.174;2022-10-16T03:01:31;6.10;;;4.90;;
9076;SDS011;4574;51.072;17.174;2022-10-16T03:03:59;4.90;;;4.33;;
9076;SDS011;4574;51.072;17.174;2022-10-16T03:06:28;5.33;;;4.83;;
9076;SDS011;4574;51.072;17.174;2022-10-16T03:08:57;5.17;;;4.33;;
9076;SDS011;4574;51.072;17.174;2022-10-16T03:11:25;6.97;;;4.50;;
9076;SDS011;4574;51.072;17.174;2022-10-16T03:13:54;5.57;;;4.43;;
9076;SDS011;4574;51.072;17.174;2022-10-16T03:16:23;5.00;;;4.27;;
9076;SDS011;4574;51.072;17.174;2022-10-16T03:18:53;6.80;;;4.33;;
9076;SDS011;4574;51.072;17.174;2022-10-16T03:21:22;6.53;;;4.33;;
9076;SDS011;4574;51.072;17.174;2022-10-16T03:23:50;4.80;;;4.30;;
9076;SDS011;4574;51.072;17.174;2022-10-16T03:26:19;5.03;;;4.53;;
9076;SDS011;4574;51.072;17.174;2022-10-16T03:28:48;7.13;;;4.87;;
9076;SDS011;4574;51.072;17.174;2022-10-16T03:31:17;5.03;;;4.53;;
9076;SDS011;4574;51.072;17.174;2022-10-16T03:33:45;5.00;;;4.53;;
9076;SDS011;4574;51.072;17.174;2022-10-16T03:36:15;5.93;;;4.70;;
9076;SDS011;4574;51.072;17.174;2022-10-16T03:38:44;8.23;;;5.03;;
9076;SDS011;4574;51.072;17.174;2022-10-16T03:41:12;6.57;;;4.77;;
9076;SDS011;4574;51.072;17.174;2022-10-16T03:43:41;5.17;;;4.63;;
9076;SDS011;4574;51.072;17.174;2022-10-16T03:46:10;5.40;;;4.90;;
9076;SDS011;4574;51.072;17.174;2022-10-16T03:48:38;5.57;;;4.97;;
9076;SDS011;4574;51.072;17.174;2022-10-16T03:51:07;9.63;;;4.40;;
9076;SDS011;4574;51.072;17.174;2022-10-16T03:53:37;8.50;;;4.67;;
9076;SDS011;4574;51.072;17.174;2022-10-16T03:56:06;4.97;;;4.37;;
9076;SDS011;4574;51.072;17.174;2022-10-16T03:58:34;5.70;;;4.70;;
9076;SDS011;4574;51.072;17.174;2022-10-16T04:01:03;5.37;;;4.83;;
9076;SDS011;4574;51.072;17.174;2022-10-16T04:03:31;4.70;;;4.13;;
9076;SDS011;4574;51.072;17.174;2022-10-16T04:06:00;4.67;;;4.10;;
9076;SDS011;4574;51.072;17.174;2022-10-16T04:08:28;5.37;;;4.57;;
9076;SDS011;4574;51.072;17.174;2022-10-16T04:10:59;4.93;;;4.43;;
9076;SDS011;4574;51.072;17.174;2022-10-16T04:13:28;4.27;;;3.87;;
9076;SDS011;4574;51.072;17.174;2022-10-16T04:15:56;7.07;;;4.63;;
9076;SDS011;4574;51.072;17.174;2022-10-16T04:18:25;6.07;;;4.60;;
9076;SDS011;4574;51.072;17.174;2022-10-16T04:20:54;5.10;;;4.60;;
9076;SDS011;4574;51.072;17.174;2022-10-16T04:23:23;6.00;;;4.50;;
9076;SDS011;4574;51.072;17.174;2022-10-16T04:25:51;5.53;;;4.90;;
9076;SDS011;4574;51.072;17.174;2022-10-16T04:28:21;9.30;;;5.03;;
9076;SDS011;4574;51.072;17.174;2022-10-16T04:30:50;5.47;;;4.53;;
9076;SDS011;4574;51.072;17.174;2022-10-16T04:33:18;5.23;;;3.63;;
9076;SDS011;4574;51.072;17.174;2022-10-16T04:35:47;5.00;;;4.30;;
9076;SDS011;4574;51.072;17.174;2022-10-16T04:38:15;4.80;;;4.30;;
9076;SDS011;4574;51.072;17.174;2022-10-16T04:40:44;5.27;;;4.53;;
9076;SDS011;4574;51.072;17.174;2022-10-16T04:43:12;5.43;;;4.57;;
9076;SDS011;4574;51.072;17.174;2022-10-16T04:45:42;6.13;;;4.57;;
9076;SDS011;4574;51.072;17.174;2022-10-16T04:48:11;5.03;;;4.50;;
9076;SDS011;4574;51.072;17.174;2022-10-16T04:50:39;5.53;;;4.60;;
9076;SDS011;4574;51.072;17.174;2022-10-16T04:53:09;5.93;;;4.40;;
9076;SDS011;4574;51.072;17.174;2022-10-16T04:55:37;6.33;;;4.73;;
9076;SDS011;4574;51.072;17.174;2022-10-16T04:58:06;7.37;;;4.57;;
9076;SDS011;4574;51.072;17.174;2022-10-16T05:00:34;5.77;;;5.13;;
9076;SDS011;4574;51.072;17.174;2022-10-16T05:03:06;5.03;;;4.23;;
9076;SDS011;4574;51.072;17.174;2022-10-16T05:05:35;5.00;;;4.50;;
9076;SDS011;4574;51.072;17.174;2022-10-16T05:08:04;5.83;;;4.97;;
9076;SDS011;4574;51.072;17.174;2022-10-16T05:10:33;6.93;;;5.37;;
9076;SDS011;4574;51.072;17.174;2022-10-16T05:13:01;5.23;;;4.27;;
9076;SDS011;4574;51.072;17.174;2022-10-16T05:15:30;6.47;;;4.87;;
9076;SDS011;4574;51.072;17.174;2022-10-16T05:17:58;6.70;;;4.73;;
9076;SDS011;4574;51.072;17.174;2022-10-16T05:20:28;7.23;;;5.40;;
9076;SDS011;4574;51.072;17.174;2022-10-16T05:22:57;6.03;;;5.43;;
9076;SDS011;4574;51.072;17.174;2022-10-16T05:25:26;6.13;;;5.13;;
9076;SDS011;4574;51.072;17.174;2022-10-16T05:27:55;5.93;;;4.97;;
9076;SDS011;4574;51.072;17.174;2022-10-16T05:30:23;7.43;;;6.00;;
9076;SDS011;4574;51.072;17.174;2022-10-16T05:32:52;5.97;;;4.97;;
9076;SDS011;4574;51.072;17.174;2022-10-16T05:35:20;9.07;;;5.20;;
9076;SDS011;4574;51.072;17.174;2022-10-16T05:37:51;9.07;;;5.37;;
9076;SDS011;4574;51.072;17.174;2022-10-16T05:40:20;5.73;;;5.13;;
9076;SDS011;4574;51.072;17.174;2022-10-16T05:42:49;6.03;;;5.30;;
9076;SDS011;4574;51.072;17.174;2022-10-16T05:45:22;6.83;;;5.10;;
9076;SDS011;4574;51.072;17.174;2022-10-16T05:47:50;5.67;;;5.07;;
9076;SDS011;4574;51.072;17.174;2022-10-16T05:50:19;7.00;;;5.80;;
9076;SDS011;4574;51.072;17.174;2022-10-16T05:52:47;8.67;;;5.37;;
9076;SDS011;4574;51.072;17.174;2022-10-16T05:55:17;6.57;;;5.67;;
9076;SDS011;4574;51.072;17.174;2022-10-16T05:57:46;5.93;;;5.33;;
9076;SDS011;4574;51.072;17.174;2022-10-16T06:00:14;6.13;;;5.33;;
9076;SDS011;4574;51.072;17.174;2022-10-16T06:02:43;6.03;;;4.97;;
9076;SDS011;4574;51.072;17.174;2022-10-16T06:05:11;7.57;;;5.40;;
9076;SDS011;4574;51.072;17.174;2022-10-16T06:07:40;6.40;;;5.40;;
9076;SDS011;4574;51.072;17.174;2022-10-16T06:10:08;5.77;;;4.70;;
9076;SDS011;4574;51.072;17.174;2022-10-16T06:12:38;6.53;;;5.63;;
9076;SDS011;4574;51.072;17.174;2022-10-16T06:15:07;6.57;;;5.33;;
9076;SDS011;4574;51.072;17.174;2022-10-16T06:17:36;6.97;;;6.00;;
9076;SDS011;4574;51.072;17.174;2022-10-16T06:20:05;7.13;;;5.30;;
9076;SDS011;4574;51.072;17.174;2022-10-16T06:22:34;6.70;;;5.70;;
9076;SDS011;4574;51.072;17.174;2022-10-16T06:25:03;7.87;;;5.70;;
9076;SDS011;4574;51.072;17.174;2022-10-16T06:27:32;9.33;;;5.70;;
9076;SDS011;4574;51.072;17.174;2022-10-16T06:30:02;6.77;;;5.57;;
9076;SDS011;4574;51.072;17.174;2022-10-16T06:32:31;6.67;;;5.13;;
9076;SDS011;4574;51.072;17.174;2022-10-16T06:35:00;5.97;;;5.13;;
9076;SDS011;4574;51.072;17.174;2022-10-16T06:37:29;5.43;;;4.93;;
9076;SDS011;4574;51.072;17.174;2022-10-16T06:39:57;6.30;;;5.57;;
9076;SDS011;4574;51.072;17.174;2022-10-16T06:42:27;5.67;;;4.93;;
9076;SDS011;4574;51.072;17.174;2022-10-16T06:44:55;7.37;;;5.50;;
9076;SDS011;4574;51.072;17.174;2022-10-16T06:47:26;6.30;;;5.70;;
9076;SDS011;4574;51.072;17.174;2022-10-16T06:49:55;6.57;;;5.77;;
9076;SDS011;4574;51.072;17.174;2022-10-16T06:52:24;6.53;;;5.80;;
9076;SDS011;4574;51.072;17.174;2022-10-16T06:54:53;5.30;;;4.80;;
9076;SDS011;4574;51.072;17.174;2022-10-16T06:57:21;5.70;;;5.13;;
9076;SDS011;4574;51.072;17.174;2022-10-16T06:59:50;6.20;;;4.87;;
9076;SDS011;4574;51.072;17.174;2022-10-16T07:02:20;5.20;;;4.70;;
9076;SDS011;4574;51.072;17.174;2022-10-16T07:04:51;4.60;;;4.20;;
9076;SDS011;4574;51.072;17.174;2022-10-16T07:07:19;4.50;;;3.97;;
9076;SDS011;4574;51.072;17.174;2022-10-16T07:09:51;7.17;;;4.60;;
9076;SDS011;4574;51.072;17.174;2022-10-16T07:12:19;4.43;;;4.03;;
9076;SDS011;4574;51.072;17.174;2022-10-16T07:14:48;4.47;;;4.07;;
9076;SDS011;4574;51.072;17.174;2022-10-16T07:17:18;4.00;;;3.60;;
9076;SDS011;4574;51.072;17.174;2022-10-16T07:19:47;4.00;;;3.60;;
9076;SDS011;4574;51.072;17.174;2022-10-16T07:22:17;4.00;;;3.60;;
9076;SDS011;4574;51.072;17.174;2022-10-16T07:24:46;5.53;;;4.93;;
9076;SDS011;4574;51.072;17.174;2022-10-16T07:27:18;4.70;;;4.17;;
9076;SDS011;4574;51.072;17.174;2022-10-16T07:29:49;6.00;;;5.40;;
9076;SDS011;4574;51.072;17.174;2022-10-16T07:32:17;5.70;;;4.83;;
9076;SDS011;4574;51.072;17.174;2022-10-16T07:34:46;4.60;;;4.03;;
9076;SDS011;4574;51.072;17.174;2022-10-16T07:37:14;4.20;;;3.83;;
9076;SDS011;4574;51.072;17.174;2022-10-16T07:39:44;4.90;;;4.27;;
9076;SDS011;4574;51.072;17.174;2022-10-16T07:42:13;4.60;;;3.73;;
9076;SDS011;4574;51.072;17.174;2022-10-16T07:44:42;3.37;;;3.07;;
9076;SDS011;4574;51.072;17.174;2022-10-16T07:47:10;4.40;;;3.67;;
9076;SDS011;4574;51.072;17.174;2022-10-16T07:49:39;7.93;;;3.87;;
9076;SDS011;4574;51.072;17.174;2022-10-16T07:52:08;4.53;;;4.10;;
9076;SDS011;4574;51.072;17.174;2022-10-16T07:54:38;4.30;;;3.90;;
9076;SDS011;4574;51.072;17.174;2022-10-16T07:57:07;4.30;;;3.90;;
9076;SDS011;4574;51.072;17.174;2022-10-16T07:59:35;5.13;;;4.03;;
9076;SDS011;4574;51.072;17.174;2022-10-16T08:02:04;4.30;;;3.90;;
9076;SDS011;4574;51.072;17.174;2022-10-16T08:04:32;4.20;;;3.80;;
9076;SDS011;4574;51.072;17.174;2022-10-16T08:07:01;4.10;;;3.70;;
9076;SDS011;4574;51.072;17.174;2022-10-16T08:09:30;5.17;;;3.47;;
9076;SDS011;4574;51.072;17.174;2022-10-16T08:11:59;3.47;;;3.17;;
9076;SDS011;4574;51.072;17.174;2022-10-16T08:14:28;4.23;;;3.50;;
9076;SDS011;4574;51.072;17.174;2022-10-16T08:16:57;3.90;;;3.10;;
9076;SDS011;4574;51.072;17.174;2022-10-16T08:19:25;3.47;;;3.00;;
9076;SDS011;4574;51.072;17.174;2022-10-16T08:21:54;3.73;;;3.33;;
9076;SDS011;4574;51.072;17.174;2022-10-16T08:24:22;3.17;;;2.87;;
9076;SDS011;4574;51.072;17.174;2022-10-16T08:26:53;3.87;;;3.43;;
9076;SDS011;4574;51.072;17.174;2022-10-16T08:29:23;4.87;;;3.63;;
9076;SDS011;4574;51.072;17.174;2022-10-16T08:31:51;3.50;;;3.20;;
9076;SDS011;4574;51.072;17.174;2022-10-16T08:34:20;3.40;;;3.10;;
9076;SDS011;4574;51.072;17.174;2022-10-16T08:36:48;3.40;;;3.10;;
9076;SDS011;4574;51.072;17.174;2022-10-16T08:39:17;3.73;;;3.17;;
9076;SDS011;4574;51.072;17.174;2022-10-16T08:41:53;3.53;;;2.77;;
9076;SDS011;4574;51.072;17.174;2022-10-16T08:44:47;3.63;;;3.30;;
9076;SDS011;4574;51.072;17.174;2022-10-16T08:47:35;7.27;;;4.77;;
9076;SDS011;4574;51.072;17.174;2022-10-16T08:50:13;4.50;;;4.07;;
9076;SDS011;4574;51.072;17.174;2022-10-16T08:52:46;4.83;;;4.43;;
9076;SDS011;4574;51.072;17.174;2022-10-16T08:55:17;3.90;;;3.53;;
9076;SDS011;4574;51.072;17.174;2022-10-16T08:57:56;3.90;;;3.50;;
9076;SDS011;4574;51.072;17.174;2022-10-16T09:00:26;6.37;;;3.67;;
9076;SDS011;4574;51.072;17.174;2022-10-16T09:02:59;3.97;;;3.57;;
9076;SDS011;4574;51.072;17.174;2022-10-16T09:05:43;4.37;;;3.40;;
9076;SDS011;4574;51.072;17.174;2022-10-16T09:08:29;4.13;;;3.57;;
9076;SDS011;4574;51.072;17.174;2022-10-16T09:11:05;3.90;;;3.50;;
9076;SDS011;4574;51.072;17.174;2022-10-16T09:13:42;5.53;;;4.00;;
9076;SDS011;4574;51.072;17.174;2022-10-16T09:16:19;3.67;;;3.37;;
9076;SDS011;4574;51.072;17.174;2022-10-16T09:18:52;5.10;;;4.30;;
9076;SDS011;4574;51.072;17.174;2022-10-16T09:21:26;4.73;;;4.00;;
9076;SDS011;4574;51.072;17.174;2022-10-16T09:23:58;5.23;;;4.67;;
9076;SDS011;4574;51.072;17.174;2022-10-16T09:26:32;5.97;;;4.80;;
9076;SDS011;4574;51.072;17.174;2022-10-16T09:29:01;5.33;;;4.17;;
9076;SDS011;4574;51.072;17.174;2022-10-16T09:31:32;5.20;;;4.33;;
9076;SDS011;4574;51.072;17.174;2022-10-16T09:34:05;7.83;;;4.70;;
9076;SDS011;4574;51.072;17.174;2022-10-16T09:36:45;4.07;;;3.67;;
9076;SDS011;4574;51.072;17.174;2022-10-16T09:39:14;7.23;;;6.40;;
9076;SDS011;4574;51.072;17.174;2022-10-16T09:41:43;5.40;;;4.90;;
9076;SDS011;4574;51.072;17.174;2022-10-16T09:44:17;6.57;;;4.87;;
9076;SDS011;4574;51.072;17.174;2022-10-16T09:47:00;6.43;;;5.40;;
9076;SDS011;4574;51.072;17.174;2022-10-16T09:49:29;6.03;;;5.13;;
9076;SDS011;4574;51.072;17.174;2022-10-16T09:52:04;5.47;;;3.70;;
9076;SDS011;4574;51.072;17.174;2022-10-16T09:54:33;5.57;;;4.00;;
9076;SDS011;4574;51.072;17.174;2022-10-16T09:57:05;10.37;;;4.93;;
9076;SDS011;4574;51.072;17.174;2022-10-16T09:59:45;7.43;;;4.70;;
9076;SDS011;4574;51.072;17.174;2022-10-16T10:02:16;5.80;;;4.80;;
9076;SDS011;4574;51.072;17.174;2022-10-16T10:04:48;7.33;;;6.17;;
9076;SDS011;4574;51.072;17.174;2022-10-16T10:07:21;4.33;;;3.70;;
9076;SDS011;4574;51.072;17.174;2022-10-16T10:09:54;4.50;;;3.90;;
9076;SDS011;4574;51.072;17.174;2022-10-16T10:12:25;7.33;;;4.20;;
9076;SDS011;4574;51.072;17.174;2022-10-16T10:14:56;4.70;;;4.20;;
9076;SDS011;4574;51.072;17.174;2022-10-16T10:17:28;7.13;;;3.73;;
9076;SDS011;4574;51.072;17.174;2022-10-16T10:19:57;5.20;;;3.80;;
9076;SDS011;4574;51.072;17.174;2022-10-16T10:22:31;4.27;;;3.33;;
9076;SDS011;4574;51.072;17.174;2022-10-16T10:25:23;3.93;;;2.90;;
9076;SDS011;4574;51.072;17.174;2022-10-16T10:28:06;5.57;;;2.70;;
9076;SDS011;4574;51.072;17.174;2022-10-16T10:30:49;5.73;;;2.77;;
9076;SDS011;4574;51.072;17.174;2022-10-16T10:33:27;2.67;;;2.20;;
9076;SDS011;4574;51.072;17.174;2022-10-16T10:36:04;2.07;;;1.90;;
9076;SDS011;4574;51.072;17.174;2022-10-16T10:38:45;2.33;;;2.13;;
9076;SDS011;4574;51.072;17.174;2022-10-16T10:41:22;2.03;;;1.80;;
9076;SDS011;4574;51.072;17.174;2022-10-16T10:44:07;2.70;;;1.60;;
9076;SDS011;4574;51.072;17.174;2022-10-16T10:46:48;2.00;;;1.90;;
9076;SDS011;4574;51.072;17.174;2022-10-16T10:49:24;1.80;;;1.70;;
9076;SDS011;4574;51.072;17.174;2022-10-16T10:52:07;4.73;;;2.50;;
9076;SDS011;4574;51.072;17.174;2022-10-16T10:55:03;3.53;;;1.63;;
9076;SDS011;4574;51.072;17.174;2022-10-16T10:57:41;1.97;;;1.77;;
9076;SDS011;4574;51.072;17.174;2022-10-16T11:00:21;1.70;;;1.60;;
9076;SDS011;4574;51.072;17.174;2022-10-16T11:02:58;2.80;;;1.63;;
9076;SDS011;4574;51.072;17.174;2022-10-16T11:05:40;1.60;;;1.50;;
9076;SDS011;4574;51.072;17.174;2022-10-16T11:08:11;1.47;;;1.37;;
9076;SDS011;4574;51.072;17.174;2022-10-16T11:10:46;1.70;;;1.60;;
9076;SDS011;4574;51.072;17.174;2022-10-16T11:13:23;2.37;;;1.30;;
9076;SDS011;4574;51.072;17.174;2022-10-16T11:15:57;2.03;;;1.57;;
9076;SDS011;4574;51.072;17.174;2022-10-16T11:18:30;1.50;;;1.40;;
9076;SDS011;4574;51.072;17.174;2022-10-16T11:21:07;3.40;;;2.63;;
9076;SDS011;4574;51.072;17.174;2022-10-16T11:23:39;1.53;;;1.43;;
9076;SDS011;4574;51.072;17.174;2022-10-16T11:26:11;1.30;;;1.20;;
9076;SDS011;4574;51.072;17.174;2022-10-16T11:28:46;2.67;;;1.77;;
9076;SDS011;4574;51.072;17.174;2022-10-16T11:31:18;3.43;;;1.50;;
9076;SDS011;4574;51.072;17.174;2022-10-16T11:33:58;2.60;;;1.83;;
9076;SDS011;4574;51.072;17.174;2022-10-16T11:36:38;2.67;;;1.83;;
9076;SDS011;4574;51.072;17.174;2022-10-16T11:39:22;2.93;;;2.00;;
9076;SDS011;4574;51.072;17.174;2022-10-16T11:41:54;2.37;;;2.03;;
9076;SDS011;4574;51.072;17.174;2022-10-16T11:44:35;2.60;;;2.37;;
9076;SDS011;4574;51.072;17.174;2022-10-16T11:47:15;3.07;;;2.53;;
9076;SDS011;4574;51.072;17.174;2022-10-16T11:50:17;2.97;;;2.73;;
9076;SDS011;4574;51.072;17.174;2022-10-16T11:52:53;3.37;;;3.07;;
9076;SDS011;4574;51.072;17.174;2022-10-16T11:55:30;2.80;;;2.60;;
9076;SDS011;4574;51.072;17.174;2022-10-16T11:58:13;7.57;;;3.30;;
9076;SDS011;4574;51.072;17.174;2022-10-16T12:00:52;3.80;;;3.40;;
9076;SDS011;4574;51.072;17.174;2022-10-16T12:03:29;3.27;;;2.97;;
9076;SDS011;4574;51.072;17.174;2022-10-16T12:06:10;3.80;;;2.90;;
9076;SDS011;4574;51.072;17.174;2022-10-16T12:08:49;4.77;;;4.33;;
9076;SDS011;4574;51.072;17.174;2022-10-16T12:11:32;5.33;;;3.33;;
9076;SDS011;4574;51.072;17.174;2022-10-16T12:14:07;3.27;;;2.97;;
9076;SDS011;4574;51.072;17.174;2022-10-16T12:16:51;5.23;;;2.90;;
9076;SDS011;4574;51.072;17.174;2022-10-16T12:19:22;3.20;;;2.90;;
9076;SDS011;4574;51.072;17.174;2022-10-16T12:21:52;5.20;;;2.70;;
9076;SDS011;4574;51.072;17.174;2022-10-16T12:24:33;3.50;;;3.20;;
9076;SDS011;4574;51.072;17.174;2022-10-16T12:27:05;3.97;;;3.60;;
9076;SDS011;4574;51.072;17.174;2022-10-16T12:29:48;4.27;;;3.57;;
9076;SDS011;4574;51.072;17.174;2022-10-16T12:32:26;4.33;;;3.83;;
9076;SDS011;4574;51.072;17.174;2022-10-16T12:35:17;6.20;;;4.40;;
9076;SDS011;4574;51.072;17.174;2022-10-16T12:37:48;7.30;;;5.03;;
9076;SDS011;4574;51.072;17.174;2022-10-16T12:40:28;5.27;;;4.50;;
9076;SDS011;4574;51.072;17.174;2022-10-16T12:42:58;4.67;;;4.20;;
9076;SDS011;4574;51.072;17.174;2022-10-16T12:45:28;5.30;;;4.53;;
9076;SDS011;4574;51.072;17.174;2022-10-16T12:47:59;7.53;;;5.43;;
9076;SDS011;4574;51.072;17.174;2022-10-16T12:50:30;6.83;;;5.80;;
9076;SDS011;4574;51.072;17.174;2022-10-16T12:53:03;7.13;;;4.50;;
9076;SDS011;4574;51.072;17.174;2022-10-16T12:55:48;6.20;;;5.60;;
9076;SDS011;4574;51.072;17.174;2022-10-16T13:01:32;8.77;;;5.47;;
9076;SDS011;4574;51.072;17.174;2022-10-16T13:04:22;6.43;;;5.70;;
9076;SDS011;4574;51.072;17.174;2022-10-16T13:07:16;6.33;;;5.67;;
9076;SDS011;4574;51.072;17.174;2022-10-16T13:10:00;6.40;;;5.80;;
9076;SDS011;4574;51.072;17.174;2022-10-16T13:12:47;6.33;;;5.67;;
9076;SDS011;4574;51.072;17.174;2022-10-16T13:15:32;6.13;;;5.10;;
9076;SDS011;4574;51.072;17.174;2022-10-16T13:18:11;7.90;;;6.23;;
9076;SDS011;4574;51.072;17.174;2022-10-16T13:20:51;7.63;;;6.10;;
9076;SDS011;4574;51.072;17.174;2022-10-16T13:23:30;7.47;;;6.13;;
9076;SDS011;4574;51.072;17.174;2022-10-16T13:26:09;11.40;;;5.73;;
9076;SDS011;4574;51.072;17.174;2022-10-16T13:28:47;7.00;;;6.00;;
9076;SDS011;4574;51.072;17.174;2022-10-16T13:31:18;5.93;;;5.37;;
9076;SDS011;4574;51.072;17.174;2022-10-16T13:33:50;6.50;;;5.57;;
9076;SDS011;4574;51.072;17.174;2022-10-16T13:36:22;6.07;;;5.40;;
9076;SDS011;4574;51.072;17.174;2022-10-16T13:39:03;7.30;;;6.27;;
9076;SDS011;4574;51.072;17.174;2022-10-16T13:41:40;6.30;;;5.60;;
9076;SDS011;4574;51.072;17.174;2022-10-16T13:44:18;6.37;;;5.77;;
9076;SDS011;4574;51.072;17.174;2022-10-16T13:46:57;5.90;;;5.40;;
9076;SDS011;4574;51.072;17.174;2022-10-16T13:49:26;7.33;;;6.00;;
9076;SDS011;4574;51.072;17.174;2022-10-16T13:51:55;7.13;;;5.80;;
9076;SDS011;4574;51.072;17.174;2022-10-16T13:54:26;13.13;;;5.80;;
9076;SDS011;4574;51.072;17.174;2022-10-16T13:57:04;8.00;;;4.90;;
9076;SDS011;4574;51.072;17.174;2022-10-16T13:59:54;11.07;;;6.27;;
9076;SDS011;4574;51.072;17.174;2022-10-16T14:02:25;10.20;;;5.40;;
9076;SDS011;4574;51.072;17.174;2022-10-16T14:04:56;9.53;;;5.60;;
9076;SDS011;4574;51.072;17.174;2022-10-16T14:07:26;10.03;;;5.30;;
9076;SDS011;4574;51.072;17.174;2022-10-16T14:09:58;8.20;;;5.30;;
9076;SDS011;4574;51.072;17.174;2022-10-16T14:12:31;8.63;;;4.97;;
9076;SDS011;4574;51.072;17.174;2022-10-16T14:15:02;7.77;;;5.37;;
9076;SDS011;4574;51.072;17.174;2022-10-16T14:17:32;5.43;;;4.90;;
9076;SDS011;4574;51.072;17.174;2022-10-16T14:20:03;7.70;;;5.07;;
9076;SDS011;4574;51.072;17.174;2022-10-16T14:22:34;6.47;;;5.23;;
9076;SDS011;4574;51.072;17.174;2022-10-16T14:25:19;6.93;;;5.10;;
9076;SDS011;4574;51.072;17.174;2022-10-16T14:28:00;8.67;;;4.83;;
9076;SDS011;4574;51.072;17.174;2022-10-16T14:30:32;7.50;;;4.97;;
9076;SDS011;4574;51.072;17.174;2022-10-16T14:33:03;7.23;;;4.97;;
9076;SDS011;4574;51.072;17.174;2022-10-16T14:35:33;6.20;;;4.77;;
9076;SDS011;4574;51.072;17.174;2022-10-16T14:38:04;5.80;;;4.30;;
9076;SDS011;4574;51.072;17.174;2022-10-16T14:40:35;7.63;;;4.60;;
9076;SDS011;4574;51.072;17.174;2022-10-16T14:43:05;12.07;;;5.50;;
9076;SDS011;4574;51.072;17.174;2022-10-16T14:45:35;7.33;;;4.47;;
9076;SDS011;4574;51.072;17.174;2022-10-16T14:48:05;7.67;;;5.03;;
9076;SDS011;4574;51.072;17.174;2022-10-16T14:50:45;5.60;;;4.77;;
9076;SDS011;4574;51.072;17.174;2022-10-16T14:53:14;9.60;;;5.20;;
9076;SDS011;4574;51.072;17.174;2022-10-16T14:55:42;11.80;;;5.53;;
9076;SDS011;4574;51.072;17.174;2022-10-16T14:58:13;8.53;;;5.60;;
9076;SDS011;4574;51.072;17.174;2022-10-16T15:00:48;10.93;;;5.97;;
9076;SDS011;4574;51.072;17.174;2022-10-16T15:03:17;10.17;;;5.47;;
9076;SDS011;4574;51.072;17.174;2022-10-16T15:05:45;10.23;;;5.40;;
9076;SDS011;4574;51.072;17.174;2022-10-16T15:08:14;16.43;;;6.17;;
9076;SDS011;4574;51.072;17.174;2022-10-16T15:10:43;15.80;;;6.30;;
9076;SDS011;4574;51.072;17.174;2022-10-16T15:13:12;17.10;;;7.03;;
9076;SDS011;4574;51.072;17.174;2022-10-16T15:15:42;10.80;;;5.70;;
9076;SDS011;4574;51.072;17.174;2022-10-16T15:18:13;9.10;;;5.27;;
9076;SDS011;4574;51.072;17.174;2022-10-16T15:20:48;7.17;;;5.67;;
9076;SDS011;4574;51.072;17.174;2022-10-16T15:23:17;7.73;;;5.20;;
9076;SDS011;4574;51.072;17.174;2022-10-16T15:25:48;5.87;;;5.27;;
9076;SDS011;4574;51.072;17.174;2022-10-16T15:28:17;5.93;;;5.20;;
9076;SDS011;4574;51.072;17.174;2022-10-16T15:30:48;6.07;;;5.30;;
9076;SDS011;4574;51.072;17.174;2022-10-16T15:33:20;5.93;;;5.00;;
9076;SDS011;4574;51.072;17.174;2022-10-16T15:35:50;9.50;;;6.03;;